Terminal Aerodrome Forecast
Issued by NWS

Home | Current Version | Previous Version | Text Only | Print | Product List | Glossary On
Versions: 1 2 3 4 5 6 7 8 9 10 11 12 13 14 15
000
FTUS45 KSLC 281808 AAA
TAF36U
TAF AMD
K36U 281808Z 2818/2918 01008G17KT P6SM SCT040 BKN050
     FM282000 01008KT P6SM SCT050 SCT070
     FM290200 VRB04KT P6SM SCT050=

USA.gov is the U.S. government's official web portal to all federal, state and local government web resources and services.